createdAt,value
2023-04-07T00:00:58.161Z,7.40
2023-04-07T00:03:27.699Z,6.70
2023-04-07T00:05:56.626Z,7.10
2023-04-07T00:08:25.716Z,7.30
2023-04-07T00:10:54.826Z,6.50
2023-04-07T00:13:23.170Z,7.10
2023-04-07T00:15:51.806Z,7.30
2023-04-07T00:18:27.433Z,6.80
2023-04-07T00:20:55.591Z,7.60
2023-04-07T00:23:23.583Z,8.30
2023-04-07T00:25:51.764Z,7.30
2023-04-07T00:28:20.853Z,8.00
2023-04-07T00:30:53.616Z,9.10
2023-04-07T00:33:24.765Z,8.90
2023-04-07T00:35:54.460Z,9.70
2023-04-07T00:38:25.387Z,9.40
2023-04-07T00:41:00.704Z,9.10
2023-04-07T00:43:31.725Z,9.30
2023-04-07T00:45:59.928Z,9.10
2023-04-07T00:48:31.373Z,8.40
2023-04-07T00:50:59.593Z,8.80
2023-04-07T00:53:28.976Z,8.40
2023-04-07T00:55:57.419Z,8.60
2023-04-07T00:58:26.165Z,7.50
2023-04-07T01:01:11.125Z,8.50
2023-04-07T01:03:50.802Z,7.10
2023-04-07T01:06:21.963Z,8.10
2023-04-07T01:08:57.689Z,8.90
2023-04-07T01:11:31.296Z,9.10
2023-04-07T01:14:00.351Z,9.30
2023-04-07T01:16:49.254Z,10.20
2023-04-07T01:19:49.188Z,10.70
2023-04-07T01:22:21.069Z,9.40
2023-04-07T01:25:15.871Z,7.80
2023-04-07T01:27:55.424Z,8.20
2023-04-07T01:30:23.810Z,6.10
2023-04-07T01:32:53.671Z,7.30
2023-04-07T01:35:22.512Z,7.20
2023-04-07T01:37:50.740Z,5.20
2023-04-07T01:40:19.609Z,6.10
2023-04-07T01:42:48.809Z,4.60
2023-04-07T01:45:17.101Z,4.60
2023-04-07T01:47:45.484Z,4.20
2023-04-07T01:50:13.540Z,3.60
2023-04-07T01:52:43.044Z,3.80
2023-04-07T01:55:11.343Z,2.90
2023-04-07T01:57:45.699Z,2.70
2023-04-07T02:00:18.634Z,3.20
2023-04-07T02:02:54.317Z,3.10
2023-04-07T02:05:22.744Z,2.80
2023-04-07T02:07:54.022Z,2.70
2023-04-07T02:10:24.552Z,2.60
2023-04-07T02:12:53.884Z,2.30
2023-04-07T02:15:21.837Z,2.40
2023-04-07T02:17:52.987Z,2.70
2023-04-07T02:20:23.983Z,2.20
2023-04-07T02:22:55.341Z,2.60
2023-04-07T02:25:29.311Z,2.30
2023-04-07T02:27:59.357Z,3.00
2023-04-07T02:30:30.970Z,2.80
2023-04-07T02:33:00.461Z,2.50
2023-04-07T02:35:33.051Z,2.80
2023-04-07T02:38:03.714Z,2.70
2023-04-07T02:40:31.981Z,2.70
2023-04-07T02:43:01.718Z,3.20
2023-04-07T02:45:29.666Z,3.10
2023-04-07T02:47:58.524Z,3.00
2023-04-07T02:50:26.900Z,3.20
2023-04-07T02:52:54.980Z,3.00
2023-04-07T02:55:22.974Z,2.70
2023-04-07T02:57:50.987Z,2.70
2023-04-07T03:00:27.156Z,2.80
2023-04-07T03:03:23.084Z,3.40
2023-04-07T03:06:18.335Z,3.00
2023-04-07T03:08:58.980Z,3.10
2023-04-07T03:11:28.017Z,2.90
2023-04-07T03:13:57.642Z,3.20
2023-04-07T03:16:27.186Z,3.10
2023-04-07T03:19:03.900Z,3.70
2023-04-07T03:21:33.875Z,3.30
2023-04-07T03:24:01.956Z,3.30
2023-04-07T03:26:30.836Z,3.40
2023-04-07T03:28:59.478Z,3.60
2023-04-07T03:31:28.521Z,3.70
2023-04-07T03:33:56.623Z,3.40
2023-04-07T03:36:24.663Z,4.00
2023-04-07T03:38:53.114Z,3.60
2023-04-07T03:41:21.320Z,3.60
2023-04-07T03:43:50.680Z,3.60
2023-04-07T03:46:21.613Z,4.20
2023-04-07T03:48:49.965Z,4.10
2023-04-07T03:51:18.510Z,3.20
2023-04-07T03:53:47.744Z,3.40
2023-04-07T03:56:27.987Z,2.80
2023-04-07T03:59:00.739Z,3.30
2023-04-07T04:01:31.874Z,3.10
2023-04-07T04:04:05.832Z,3.00
2023-04-07T04:06:37.248Z,2.60
2023-04-07T04:09:21.799Z,3.20
2023-04-07T04:11:51.069Z,3.50
2023-04-07T04:14:21.840Z,3.70
2023-04-07T04:16:55.519Z,3.60
2023-04-07T04:19:33.624Z,4.60
2023-04-07T04:22:05.009Z,3.60
2023-04-07T04:24:36.652Z,3.70
2023-04-07T04:27:05.448Z,3.80
2023-04-07T04:29:36.235Z,3.40
2023-04-07T04:32:04.786Z,3.90
2023-04-07T04:34:36.743Z,4.30
2023-04-07T04:37:06.039Z,4.00
2023-04-07T04:39:34.616Z,4.40
2023-04-07T04:42:03.880Z,4.20
2023-04-07T04:44:35.706Z,4.70
2023-04-07T04:47:04.815Z,3.90
2023-04-07T04:49:33.134Z,3.20
2023-04-07T04:52:02.983Z,4.40
2023-04-07T04:54:34.835Z,4.20
2023-04-07T04:57:03.635Z,3.70
2023-04-07T04:59:34.163Z,4.10
2023-04-07T05:02:04.833Z,4.30
2023-04-07T05:04:33.569Z,4.20
2023-04-07T05:07:19.065Z,4.10
2023-04-07T05:09:47.814Z,4.70
2023-04-07T05:12:16.656Z,4.50
2023-04-07T05:14:50.523Z,3.70
2023-04-07T05:17:21.122Z,4.80
2023-04-07T05:19:49.179Z,5.20
2023-04-07T05:22:31.059Z,4.90
2023-04-07T05:24:59.397Z,4.40
2023-04-07T05:27:28.390Z,4.50
2023-04-07T05:30:02.610Z,5.20
2023-04-07T05:32:33.734Z,5.40
2023-04-07T05:35:05.656Z,6.10
2023-04-07T05:37:39.089Z,4.80
2023-04-07T05:40:10.373Z,5.50
2023-04-07T05:42:39.261Z,4.70
2023-04-07T05:45:10.505Z,5.30
2023-04-07T05:47:41.503Z,4.90
2023-04-07T05:50:14.201Z,5.20
2023-04-07T05:52:43.446Z,5.80
2023-04-07T05:55:20.054Z,5.60
2023-04-07T05:57:49.525Z,5.50
2023-04-07T06:00:20.011Z,5.00
2023-04-07T06:02:51.982Z,5.70
2023-04-07T06:05:21.257Z,5.70
2023-04-07T06:07:51.085Z,6.20
2023-04-07T06:10:21.326Z,5.70
2023-04-07T06:12:50.186Z,5.20
2023-04-07T06:15:18.355Z,5.80
2023-04-07T06:19:20.536Z,6.00
2023-04-07T06:21:47.601Z,5.00
2023-04-07T06:24:15.527Z,6.20
2023-04-07T06:26:42.733Z,6.20
2023-04-07T06:29:09.386Z,6.70
2023-04-07T06:31:37.006Z,5.70
2023-04-07T06:34:04.462Z,5.40
2023-04-07T06:36:33.265Z,6.30
2023-04-07T06:39:00.212Z,6.00
2023-04-07T06:41:27.045Z,6.40
2023-04-07T06:43:54.899Z,5.20
2023-04-07T06:46:22.085Z,7.20
2023-04-07T06:48:48.839Z,6.70
2023-04-07T06:51:16.076Z,7.20
2023-04-07T06:53:43.932Z,6.50
2023-04-07T06:56:11.309Z,6.70
2023-04-07T06:58:38.160Z,6.00
2023-04-07T07:01:08.566Z,6.40
2023-04-07T07:03:38.352Z,7.30
2023-04-07T07:06:05.448Z,7.10
2023-04-07T07:08:32.172Z,7.20
2023-04-07T07:11:00.148Z,6.80
2023-04-07T07:13:27.636Z,8.00
2023-04-07T07:15:54.625Z,6.90
2023-04-07T07:18:21.299Z,9.10
2023-04-07T07:20:48.180Z,8.60
2023-04-07T07:23:15.159Z,8.30
2023-04-07T07:25:42.372Z,8.90
2023-04-07T07:28:09.246Z,7.60
2023-04-07T07:30:39.153Z,8.20
2023-04-07T07:33:07.526Z,7.70
2023-04-07T07:35:34.370Z,8.20
2023-04-07T07:38:02.221Z,8.20
2023-04-07T07:40:29.222Z,8.70
2023-04-07T07:42:56.867Z,9.30
2023-04-07T07:45:23.845Z,9.30
2023-04-07T07:47:50.472Z,9.40
2023-04-07T07:50:17.590Z,9.30
2023-04-07T07:52:44.445Z,10.00
2023-04-07T07:55:12.645Z,10.40
2023-04-07T07:57:40.905Z,8.80
2023-04-07T08:00:08.542Z,8.30
2023-04-07T08:02:42.993Z,10.50
2023-04-07T08:05:10.729Z,9.60
2023-04-07T08:07:38.145Z,10.00
2023-04-07T08:10:05.740Z,9.70
2023-04-07T08:12:44.252Z,9.80
2023-04-07T08:15:11.204Z,9.10
2023-04-07T08:17:38.147Z,10.10
2023-04-07T08:20:06.319Z,10.70
2023-04-07T08:22:33.769Z,10.50
2023-04-07T08:25:00.761Z,9.60
2023-04-07T08:27:29.008Z,11.50
2023-04-07T08:30:03.609Z,10.50
2023-04-07T08:32:36.557Z,11.50
2023-04-07T08:35:03.589Z,9.30
2023-04-07T08:37:31.992Z,10.70
2023-04-07T08:39:59.706Z,10.50
2023-04-07T08:42:32.251Z,8.90
2023-04-07T08:45:03.849Z,10.70
2023-04-07T08:47:32.942Z,9.80
2023-04-07T08:50:08.563Z,9.60
2023-04-07T08:52:41.593Z,10.40
2023-04-07T08:55:09.825Z,9.70
2023-04-07T08:57:36.760Z,10.30
2023-04-07T09:00:07.007Z,10.30
2023-04-07T09:02:39.218Z,9.60
2023-04-07T09:05:07.720Z,9.20
2023-04-07T09:07:35.710Z,9.30
2023-04-07T09:10:02.695Z,9.30
2023-04-07T09:12:30.603Z,9.20
2023-04-07T09:14:57.364Z,10.30
2023-04-07T09:17:26.676Z,9.00
2023-04-07T09:19:56.152Z,8.70
2023-04-07T09:22:43.142Z,7.70
2023-04-07T09:25:22.194Z,8.10
2023-04-07T09:27:59.708Z,7.70
2023-04-07T09:30:28.192Z,8.10
2023-04-07T09:32:56.113Z,9.00
2023-04-07T09:35:24.173Z,8.80
2023-04-07T09:38:02.257Z,7.80
2023-04-07T09:40:29.532Z,9.40
2023-04-07T09:42:57.962Z,9.00
2023-04-07T09:45:33.754Z,9.10
2023-04-07T09:48:06.450Z,9.30
2023-04-07T09:50:34.548Z,9.50
2023-04-07T09:53:02.605Z,9.20
2023-04-07T09:55:29.768Z,8.70
2023-04-07T09:57:56.551Z,8.30
2023-04-07T10:00:25.863Z,8.50
2023-04-07T10:02:54.708Z,8.60
2023-04-07T10:05:21.730Z,8.20
2023-04-07T10:07:48.666Z,7.80
2023-04-07T10:10:15.944Z,8.10
2023-04-07T10:12:43.083Z,8.10
2023-04-07T10:15:15.626Z,7.60
2023-04-07T10:17:46.580Z,8.80
2023-04-07T10:20:13.461Z,8.50
2023-04-07T10:22:41.139Z,8.70
2023-04-07T10:25:10.430Z,8.10
2023-04-07T10:27:51.918Z,9.00
2023-04-07T10:30:30.376Z,8.10
2023-04-07T10:33:17.878Z,8.30
2023-04-07T10:36:06.776Z,9.00
2023-04-07T10:38:33.490Z,8.50
2023-04-07T10:41:00.627Z,8.30
2023-04-07T10:43:38.987Z,8.00
2023-04-07T10:46:05.653Z,8.00
2023-04-07T10:48:32.941Z,7.70
2023-04-07T10:51:06.452Z,8.00
2023-04-07T10:53:34.267Z,7.80
2023-04-07T10:56:00.956Z,8.00
2023-04-07T10:58:29.203Z,9.00
2023-04-07T11:00:59.222Z,10.40
2023-04-07T11:03:26.170Z,10.70
2023-04-07T11:06:09.379Z,10.40
2023-04-07T11:08:48.198Z,11.60
2023-04-07T11:11:41.070Z,12.00
2023-04-07T11:14:08.043Z,9.70
2023-04-07T11:16:36.658Z,10.50
2023-04-07T11:19:03.426Z,9.60
2023-04-07T11:21:30.361Z,9.40
2023-04-07T11:23:57.072Z,10.60
2023-04-07T11:26:24.235Z,11.50
2023-04-07T11:28:53.130Z,10.30
2023-04-07T11:31:30.886Z,11.00
2023-04-07T11:33:59.650Z,11.30
2023-04-07T11:36:47.865Z,11.30
2023-04-07T11:39:21.513Z,11.20
2023-04-07T11:41:49.633Z,11.80
2023-04-07T11:44:17.143Z,11.20
2023-04-07T11:46:56.970Z,10.30
2023-04-07T11:49:27.701Z,10.90
2023-04-07T11:52:02.524Z,10.30
2023-04-07T11:54:59.677Z,11.70
2023-04-07T11:57:27.833Z,13.20
2023-04-07T12:00:08.016Z,13.80
2023-04-07T12:02:35.668Z,17.90
2023-04-07T12:05:03.274Z,13.30
2023-04-07T12:07:33.333Z,12.00
2023-04-07T12:10:17.786Z,11.60
2023-04-07T12:12:45.908Z,10.90
2023-04-07T12:15:13.647Z,10.10
2023-04-07T12:17:47.816Z,9.70
2023-04-07T12:20:15.364Z,10.40
2023-04-07T12:22:42.248Z,10.40
2023-04-07T12:25:08.983Z,10.00
2023-04-07T12:27:45.116Z,11.20
2023-04-07T12:30:13.114Z,10.80
2023-04-07T12:32:40.563Z,9.40
2023-04-07T12:35:09.299Z,8.60
2023-04-07T12:37:36.844Z,9.10
2023-04-07T12:40:03.827Z,8.60
2023-04-07T12:42:31.127Z,8.00
2023-04-07T12:44:58.408Z,9.30
2023-04-07T12:47:25.373Z,9.30
2023-04-07T12:49:52.422Z,9.50
2023-04-07T12:52:20.620Z,10.40
2023-04-07T12:54:48.265Z,10.50
2023-04-07T12:57:16.188Z,8.80
2023-04-07T12:59:43.258Z,10.80
2023-04-07T13:02:12.816Z,10.50
2023-04-07T13:04:42.943Z,9.40
2023-04-07T13:07:09.606Z,10.10
2023-04-07T13:09:36.591Z,9.20
2023-04-07T13:12:03.219Z,9.00
2023-04-07T13:14:30.385Z,10.20
2023-04-07T13:16:58.284Z,10.10
2023-04-07T13:19:25.463Z,9.40
2023-04-07T13:21:53.100Z,8.60
2023-04-07T13:24:21.067Z,7.90
2023-04-07T13:26:48.486Z,8.20
2023-04-07T13:29:15.830Z,8.50
2023-04-07T13:31:45.466Z,8.20
2023-04-07T13:34:12.936Z,9.00
2023-04-07T13:36:40.855Z,9.20
2023-04-07T13:39:08.453Z,8.50
2023-04-07T13:41:36.827Z,9.30
2023-04-07T13:44:04.200Z,9.30
2023-04-07T13:46:31.384Z,8.40
2023-04-07T13:48:58.652Z,9.00
2023-04-07T13:51:27.414Z,8.30
2023-04-07T13:53:54.113Z,9.00
2023-04-07T13:56:21.638Z,9.70
2023-04-07T13:58:48.561Z,8.90
2023-04-07T14:01:16.406Z,9.70
2023-04-07T14:03:44.572Z,10.20
2023-04-07T14:06:11.598Z,9.50
2023-04-07T14:08:39.618Z,9.20
2023-04-07T14:11:06.498Z,9.80
2023-04-07T14:13:33.918Z,8.80
2023-04-07T14:16:02.533Z,7.40
2023-04-07T14:18:30.926Z,8.20
2023-04-07T14:20:57.938Z,8.00
2023-04-07T14:23:36.487Z,9.10
2023-04-07T14:26:03.846Z,8.60
2023-04-07T14:28:31.737Z,8.30
2023-04-07T14:30:58.932Z,8.10
2023-04-07T14:33:26.159Z,7.20
2023-04-07T14:35:52.797Z,6.50
2023-04-07T14:38:23.681Z,6.90
2023-04-07T14:40:53.204Z,7.10
2023-04-07T14:43:20.449Z,8.00
2023-04-07T14:45:47.145Z,7.60
2023-04-07T14:48:14.187Z,7.60
2023-04-07T14:50:40.875Z,7.60
2023-04-07T14:53:07.561Z,5.40
2023-04-07T14:55:35.697Z,5.00
2023-04-07T14:58:02.273Z,5.30
2023-04-07T15:00:29.420Z,4.20
2023-04-07T15:03:15.969Z,3.20
2023-04-07T15:05:42.800Z,3.30
2023-04-07T15:08:13.329Z,3.50
2023-04-07T15:10:40.836Z,4.40
2023-04-07T15:13:07.452Z,5.10
2023-04-07T15:15:34.402Z,5.20
2023-04-07T15:18:01.372Z,4.60
2023-04-07T15:20:28.431Z,5.20
2023-04-07T15:23:00.583Z,5.30
2023-04-07T15:25:28.035Z,4.50
2023-04-07T15:27:54.788Z,4.50
2023-04-07T15:30:22.034Z,3.90
2023-04-07T15:33:03.659Z,3.90
2023-04-07T15:35:31.559Z,4.10
2023-04-07T15:37:58.540Z,4.10
2023-04-07T15:40:25.234Z,4.60
2023-04-07T15:42:52.057Z,3.70
2023-04-07T15:45:18.871Z,4.20
2023-04-07T15:47:46.151Z,3.60
2023-04-07T15:50:13.353Z,3.90
2023-04-07T15:52:40.375Z,4.20
2023-04-07T15:55:07.464Z,3.60
2023-04-07T15:57:34.163Z,3.30
2023-04-07T16:00:01.097Z,3.00
2023-04-07T16:02:28.277Z,4.00
2023-04-07T16:04:55.185Z,3.50
2023-04-07T16:07:21.837Z,3.60
2023-04-07T16:09:48.516Z,3.30
2023-04-07T16:12:17.911Z,3.60
2023-04-07T16:14:44.784Z,3.00
2023-04-07T16:17:14.316Z,2.70
2023-04-07T16:19:41.881Z,2.90
2023-04-07T16:22:08.417Z,3.00
2023-04-07T16:24:36.076Z,3.90
2023-04-07T16:27:04.369Z,3.70
2023-04-07T16:29:35.045Z,4.60
2023-04-07T16:32:03.651Z,5.20
2023-04-07T16:34:30.706Z,8.60
2023-04-07T16:37:01.202Z,4.80
2023-04-07T16:39:29.538Z,4.60
2023-04-07T16:41:56.376Z,4.30
2023-04-07T16:44:27.403Z,4.20
2023-04-07T16:46:54.393Z,4.20
2023-04-07T16:49:23.781Z,5.10
2023-04-07T16:51:50.435Z,3.90
2023-04-07T16:54:17.214Z,4.40
2023-04-07T16:56:48.561Z,4.60
2023-04-07T16:59:15.441Z,4.60
2023-04-07T17:01:42.609Z,4.20
2023-04-07T17:04:10.513Z,5.00
2023-04-07T17:06:37.773Z,5.00
2023-04-07T17:09:06.482Z,5.40
2023-04-07T17:11:33.557Z,5.20
2023-04-07T17:14:00.233Z,5.80
2023-04-07T17:16:28.898Z,6.60
2023-04-07T17:18:57.641Z,6.60
2023-04-07T17:21:24.231Z,6.80
2023-04-07T17:23:51.240Z,6.20
2023-04-07T17:26:17.909Z,6.80
2023-04-07T17:28:45.573Z,6.80
2023-04-07T17:31:14.065Z,8.00
2023-04-07T17:33:41.993Z,8.90
2023-04-07T17:36:08.807Z,6.30
2023-04-07T17:38:35.640Z,8.20
2023-04-07T17:41:02.350Z,8.00
2023-04-07T17:46:03.908Z,5.60
2023-04-07T17:48:31.574Z,6.00
2023-04-07T17:50:59.478Z,5.70
2023-04-07T17:53:26.182Z,5.60
2023-04-07T17:55:53.192Z,6.20
2023-04-07T17:58:20.529Z,6.00
2023-04-07T18:00:47.282Z,6.50
2023-04-07T18:03:17.226Z,6.70
2023-04-07T18:05:44.780Z,6.00
2023-04-07T18:08:12.077Z,6.10
2023-04-07T18:10:39.270Z,5.40
2023-04-07T18:13:06.620Z,4.70
2023-04-07T18:15:33.579Z,4.60
2023-04-07T18:18:01.764Z,4.70
2023-04-07T18:20:30.947Z,4.70
2023-04-07T18:22:58.419Z,4.50
2023-04-07T18:25:26.496Z,4.60
2023-04-07T18:27:53.509Z,4.10
2023-04-07T18:30:21.323Z,4.50
2023-04-07T18:32:50.301Z,4.40
2023-04-07T18:37:07.882Z,4.20
2023-04-07T18:39:37.035Z,4.20
2023-04-07T18:42:05.526Z,4.70
2023-04-07T18:44:34.755Z,3.90
2023-04-07T18:47:02.865Z,3.90
2023-04-07T18:49:31.577Z,4.00
2023-04-07T18:51:59.905Z,4.30
2023-04-07T18:54:28.661Z,4.70
2023-04-07T18:56:58.055Z,5.50
2023-04-07T18:59:28.685Z,5.30
2023-04-07T19:01:57.080Z,5.40
2023-04-07T19:04:25.419Z,5.50
2023-04-07T19:06:54.396Z,4.90
2023-04-07T19:09:24.151Z,4.30
2023-04-07T19:11:52.518Z,4.60
2023-04-07T19:14:21.089Z,4.10
2023-04-07T19:16:49.331Z,4.40
2023-04-07T19:19:17.822Z,4.70
2023-04-07T19:21:50.581Z,4.60
2023-04-07T19:24:18.967Z,5.50
2023-04-07T19:26:47.467Z,4.90
2023-04-07T19:29:16.472Z,4.40
2023-04-07T19:31:44.724Z,5.60
2023-04-07T19:34:12.828Z,5.10
2023-04-07T19:36:42.291Z,5.70
2023-04-07T19:39:10.572Z,5.60
2023-04-07T19:41:41.747Z,4.60
2023-04-07T19:44:09.728Z,4.90
2023-04-07T19:46:38.076Z,5.60
2023-04-07T19:49:06.241Z,5.30
2023-04-07T19:51:35.352Z,7.40
2023-04-07T19:54:07.895Z,9.10
2023-04-07T19:56:37.689Z,9.20
2023-04-07T19:59:09.617Z,10.50
2023-04-07T20:01:38.995Z,11.20
2023-04-07T20:04:07.354Z,13.20
2023-04-07T20:06:36.819Z,13.30
2023-04-07T20:09:04.902Z,14.20
2023-04-07T20:11:33.158Z,12.90
2023-04-07T20:14:04.956Z,12.90
2023-04-07T20:16:33.540Z,13.60
2023-04-07T20:19:01.771Z,15.30
2023-04-07T20:21:32.673Z,16.40
2023-04-07T20:24:01.130Z,18.30
2023-04-07T20:26:29.624Z,19.20
2023-04-07T20:28:58.230Z,19.70
2023-04-07T20:31:27.474Z,19.90
2023-04-07T20:33:55.601Z,17.70
2023-04-07T20:36:23.673Z,16.60
2023-04-07T20:38:52.366Z,17.10
2023-04-07T20:41:22.792Z,15.50
2023-04-07T20:43:51.942Z,14.10
2023-04-07T20:46:21.065Z,14.10
2023-04-07T20:48:50.474Z,13.50
2023-04-07T20:51:19.826Z,13.60
2023-04-07T20:53:48.457Z,13.70
2023-04-07T20:56:16.517Z,13.20
2023-04-07T20:58:47.911Z,12.40
2023-04-07T21:01:16.666Z,11.60
2023-04-07T21:03:45.465Z,13.70
2023-04-07T21:06:14.745Z,13.30
2023-04-07T21:08:43.531Z,11.90
2023-04-07T21:11:11.773Z,13.10
2023-04-07T21:13:40.081Z,13.60
2023-04-07T21:16:08.660Z,12.30
2023-04-07T21:18:37.982Z,12.50
2023-04-07T21:21:08.270Z,11.80
2023-04-07T21:23:36.371Z,12.30
2023-04-07T21:26:04.461Z,13.90
2023-04-07T21:28:35.584Z,13.50
2023-04-07T21:31:04.581Z,13.60
2023-04-07T21:33:33.055Z,12.50
2023-04-07T21:36:02.446Z,10.70
2023-04-07T21:38:31.574Z,13.30
2023-04-07T21:40:59.704Z,12.00
2023-04-07T21:43:29.018Z,10.20
2023-04-07T21:45:57.335Z,10.10
2023-04-07T21:48:25.368Z,10.80
2023-04-07T21:50:53.408Z,10.70
2023-04-07T21:53:22.491Z,9.50
2023-04-07T21:55:51.723Z,8.80
2023-04-07T21:58:23.559Z,9.10
2023-04-07T22:00:53.657Z,9.40
2023-04-07T22:03:22.284Z,7.90
2023-04-07T22:05:51.647Z,8.70
2023-04-07T22:08:20.078Z,8.20
2023-04-07T22:10:48.065Z,8.40
2023-04-07T22:13:16.217Z,8.00
2023-04-07T22:15:44.673Z,7.80
2023-04-07T22:18:13.578Z,8.40
2023-04-07T22:20:41.951Z,8.30
2023-04-07T22:23:10.371Z,8.80
2023-04-07T22:25:39.231Z,8.80
2023-04-07T22:28:07.351Z,10.30
2023-04-07T22:30:35.468Z,8.20
2023-04-07T22:33:05.305Z,9.40
2023-04-07T22:35:34.221Z,9.00
2023-04-07T22:38:05.016Z,8.00
2023-04-07T22:40:33.147Z,9.40
2023-04-07T22:43:01.441Z,10.30
2023-04-07T22:45:31.649Z,9.30
2023-04-07T22:48:00.330Z,10.20
2023-04-07T22:50:33.745Z,9.80
2023-04-07T22:53:01.795Z,8.90
2023-04-07T22:55:30.438Z,9.50
2023-04-07T22:57:58.606Z,8.60
2023-04-07T23:00:26.849Z,9.80
2023-04-07T23:02:57.602Z,8.60
2023-04-07T23:05:26.036Z,9.20
2023-04-07T23:07:54.732Z,9.60
2023-04-07T23:10:25.851Z,9.50
2023-04-07T23:12:55.107Z,9.80
2023-04-07T23:15:23.644Z,9.10
2023-04-07T23:17:59.171Z,9.10
2023-04-07T23:20:27.577Z,9.60
2023-04-07T23:23:01.252Z,9.20
2023-04-07T23:25:30.190Z,8.60
2023-04-07T23:27:58.660Z,8.00
2023-04-07T23:30:27.502Z,8.20
2023-04-07T23:32:56.357Z,8.30
2023-04-07T23:35:28.039Z,8.40
2023-04-07T23:37:56.068Z,8.10
2023-04-07T23:40:24.669Z,8.70
2023-04-07T23:42:53.238Z,8.60
2023-04-07T23:45:22.093Z,9.40
2023-04-07T23:47:50.220Z,9.90
2023-04-07T23:50:18.589Z,9.50
2023-04-07T23:52:46.961Z,8.80
2023-04-07T23:55:15.176Z,9.40
2023-04-07T23:57:43.226Z,8.80
